sensor_id;sensor_type;location;lat;lon;timestamp;P1;durP1;ratioP1;P2;durP2;ratioP2
47365;SDS011;33105;47.964;7.982;2022-12-18T00:02:14;39.43;;;17.73;;
47365;SDS011;33105;47.964;7.982;2022-12-18T00:05:17;43.23;;;18.60;;
47365;SDS011;33105;47.964;7.982;2022-12-18T00:08:18;41.10;;;18.87;;
47365;SDS011;33105;47.964;7.982;2022-12-18T00:11:20;41.40;;;18.60;;
47365;SDS011;33105;47.964;7.982;2022-12-18T00:14:24;40.17;;;20.10;;
47365;SDS011;33105;47.964;7.982;2022-12-18T00:17:26;43.33;;;19.60;;
47365;SDS011;33105;47.964;7.982;2022-12-18T00:20:28;39.03;;;18.73;;
47365;SDS011;33105;47.964;7.982;2022-12-18T00:23:30;36.50;;;18.73;;
47365;SDS011;33105;47.964;7.982;2022-12-18T00:26:34;48.47;;;19.47;;
47365;SDS011;33105;47.964;7.982;2022-12-18T00:29:38;51.10;;;20.23;;
47365;SDS011;33105;47.964;7.982;2022-12-18T00:32:39;40.13;;;17.80;;
47365;SDS011;33105;47.964;7.982;2022-12-18T00:35:42;42.93;;;18.03;;
47365;SDS011;33105;47.964;7.982;2022-12-18T00:38:45;38.33;;;17.40;;
47365;SDS011;33105;47.964;7.982;2022-12-18T00:41:47;37.60;;;16.40;;
47365;SDS011;33105;47.964;7.982;2022-12-18T00:45:08;39.17;;;17.90;;
47365;SDS011;33105;47.964;7.982;2022-12-18T00:48:10;41.20;;;17.67;;
47365;SDS011;33105;47.964;7.982;2022-12-18T00:51:11;47.70;;;18.33;;
47365;SDS011;33105;47.964;7.982;2022-12-18T00:54:14;38.93;;;17.73;;
47365;SDS011;33105;47.964;7.982;2022-12-18T00:57:16;42.57;;;18.70;;
47365;SDS011;33105;47.964;7.982;2022-12-18T01:00:18;42.77;;;20.23;;
47365;SDS011;33105;47.964;7.982;2022-12-18T01:03:20;50.63;;;21.83;;
47365;SDS011;33105;47.964;7.982;2022-12-18T01:06:21;52.80;;;22.23;;
47365;SDS011;33105;47.964;7.982;2022-12-18T01:09:23;52.73;;;22.77;;
47365;SDS011;33105;47.964;7.982;2022-12-18T01:12:27;53.50;;;22.57;;
47365;SDS011;33105;47.964;7.982;2022-12-18T01:15:30;49.93;;;22.67;;
47365;SDS011;33105;47.964;7.982;2022-12-18T01:18:32;47.43;;;21.83;;
47365;SDS011;33105;47.964;7.982;2022-12-18T01:21:34;52.37;;;20.63;;
47365;SDS011;33105;47.964;7.982;2022-12-18T01:24:38;63.67;;;24.80;;
47365;SDS011;33105;47.964;7.982;2022-12-18T01:27:41;72.37;;;28.77;;
47365;SDS011;33105;47.964;7.982;2022-12-18T01:30:43;72.17;;;28.63;;
47365;SDS011;33105;47.964;7.982;2022-12-18T01:33:45;75.20;;;28.30;;
47365;SDS011;33105;47.964;7.982;2022-12-18T01:36:46;72.27;;;27.63;;
47365;SDS011;33105;47.964;7.982;2022-12-18T01:39:48;68.60;;;25.37;;
47365;SDS011;33105;47.964;7.982;2022-12-18T01:42:52;63.90;;;25.83;;
47365;SDS011;33105;47.964;7.982;2022-12-18T01:45:55;61.10;;;23.77;;
47365;SDS011;33105;47.964;7.982;2022-12-18T01:49:01;61.27;;;24.00;;
47365;SDS011;33105;47.964;7.982;2022-12-18T01:52:03;47.47;;;20.03;;
47365;SDS011;33105;47.964;7.982;2022-12-18T01:55:06;38.37;;;16.67;;
47365;SDS011;33105;47.964;7.982;2022-12-18T01:58:09;37.40;;;16.83;;
47365;SDS011;33105;47.964;7.982;2022-12-18T02:01:11;41.53;;;16.50;;
47365;SDS011;33105;47.964;7.982;2022-12-18T02:04:26;43.33;;;17.80;;
47365;SDS011;33105;47.964;7.982;2022-12-18T02:11:09;45.13;;;18.07;;
47365;SDS011;33105;47.964;7.982;2022-12-18T02:14:28;46.80;;;18.63;;
47365;SDS011;33105;47.964;7.982;2022-12-18T02:17:54;43.27;;;16.13;;
47365;SDS011;33105;47.964;7.982;2022-12-18T02:21:08;40.20;;;17.67;;
47365;SDS011;33105;47.964;7.982;2022-12-18T02:24:35;38.03;;;16.23;;
47365;SDS011;33105;47.964;7.982;2022-12-18T02:30:56;30.70;;;13.73;;
47365;SDS011;33105;47.964;7.982;2022-12-18T02:34:03;32.60;;;14.60;;
47365;SDS011;33105;47.964;7.982;2022-12-18T02:40:15;38.67;;;16.67;;
47365;SDS011;33105;47.964;7.982;2022-12-18T02:43:19;43.23;;;17.50;;
47365;SDS011;33105;47.964;7.982;2022-12-18T02:46:28;41.47;;;17.27;;
47365;SDS011;33105;47.964;7.982;2022-12-18T02:49:41;39.37;;;16.53;;
47365;SDS011;33105;47.964;7.982;2022-12-18T02:59:30;40.27;;;16.27;;
47365;SDS011;33105;47.964;7.982;2022-12-18T03:06:10;38.53;;;17.73;;
47365;SDS011;33105;47.964;7.982;2022-12-18T03:09:27;41.57;;;18.47;;
47365;SDS011;33105;47.964;7.982;2022-12-18T03:12:37;41.23;;;18.17;;
47365;SDS011;33105;47.964;7.982;2022-12-18T03:15:46;39.70;;;17.52;;
47365;SDS011;33105;47.964;7.982;2022-12-18T03:18:53;38.93;;;18.13;;
47365;SDS011;33105;47.964;7.982;2022-12-18T03:22:00;38.47;;;16.20;;
47365;SDS011;33105;47.964;7.982;2022-12-18T03:25:15;37.00;;;16.07;;
47365;SDS011;33105;47.964;7.982;2022-12-18T03:28:20;38.43;;;16.80;;
47365;SDS011;33105;47.964;7.982;2022-12-18T03:31:29;37.17;;;16.23;;
47365;SDS011;33105;47.964;7.982;2022-12-18T03:34:39;33.50;;;15.20;;
47365;SDS011;33105;47.964;7.982;2022-12-18T03:37:46;33.20;;;15.03;;
47365;SDS011;33105;47.964;7.982;2022-12-18T03:50:22;29.40;;;12.43;;
47365;SDS011;33105;47.964;7.982;2022-12-18T03:57:17;26.47;;;11.40;;
47365;SDS011;33105;47.964;7.982;2022-12-18T04:00:24;28.53;;;11.83;;
47365;SDS011;33105;47.964;7.982;2022-12-18T04:03:34;31.10;;;12.80;;
47365;SDS011;33105;47.964;7.982;2022-12-18T04:06:45;29.10;;;13.03;;
47365;SDS011;33105;47.964;7.982;2022-12-18T04:09:48;28.33;;;13.07;;
47365;SDS011;33105;47.964;7.982;2022-12-18T04:12:56;26.80;;;11.60;;
47365;SDS011;33105;47.964;7.982;2022-12-18T04:16:00;24.43;;;11.97;;
47365;SDS011;33105;47.964;7.982;2022-12-18T04:19:03;25.90;;;12.17;;
47365;SDS011;33105;47.964;7.982;2022-12-18T04:22:11;27.97;;;12.53;;
47365;SDS011;33105;47.964;7.982;2022-12-18T04:25:18;33.10;;;13.37;;
47365;SDS011;33105;47.964;7.982;2022-12-18T04:28:31;26.43;;;11.53;;
47365;SDS011;33105;47.964;7.982;2022-12-18T04:31:33;28.57;;;11.43;;
47365;SDS011;33105;47.964;7.982;2022-12-18T04:34:35;29.67;;;12.57;;
47365;SDS011;33105;47.964;7.982;2022-12-18T04:37:37;29.43;;;11.37;;
47365;SDS011;33105;47.964;7.982;2022-12-18T04:40:39;30.27;;;13.77;;
47365;SDS011;33105;47.964;7.982;2022-12-18T04:43:48;32.58;;;14.52;;
47365;SDS011;33105;47.964;7.982;2022-12-18T04:46:51;29.43;;;14.47;;
47365;SDS011;33105;47.964;7.982;2022-12-18T04:49:53;33.17;;;13.97;;
47365;SDS011;33105;47.964;7.982;2022-12-18T04:52:55;28.67;;;13.60;;
47365;SDS011;33105;47.964;7.982;2022-12-18T04:56:06;29.97;;;13.63;;
47365;SDS011;33105;47.964;7.982;2022-12-18T04:59:14;26.73;;;11.77;;
47365;SDS011;33105;47.964;7.982;2022-12-18T05:02:15;27.37;;;12.17;;
47365;SDS011;33105;47.964;7.982;2022-12-18T05:05:17;28.80;;;13.07;;
47365;SDS011;33105;47.964;7.982;2022-12-18T05:08:19;25.53;;;12.27;;
47365;SDS011;33105;47.964;7.982;2022-12-18T05:11:21;27.07;;;14.43;;
47365;SDS011;33105;47.964;7.982;2022-12-18T05:14:24;23.77;;;11.83;;
47365;SDS011;33105;47.964;7.982;2022-12-18T05:17:25;26.37;;;12.30;;
47365;SDS011;33105;47.964;7.982;2022-12-18T05:20:27;26.43;;;12.23;;
47365;SDS011;33105;47.964;7.982;2022-12-18T05:23:29;27.40;;;12.53;;
47365;SDS011;33105;47.964;7.982;2022-12-18T05:26:30;46.83;;;17.67;;
47365;SDS011;33105;47.964;7.982;2022-12-18T05:29:33;102.17;;;35.80;;
47365;SDS011;33105;47.964;7.982;2022-12-18T05:32:35;97.07;;;35.43;;
47365;SDS011;33105;47.964;7.982;2022-12-18T05:35:36;64.67;;;25.07;;
47365;SDS011;33105;47.964;7.982;2022-12-18T05:38:38;59.10;;;21.87;;
47365;SDS011;33105;47.964;7.982;2022-12-18T05:41:41;69.13;;;22.90;;
47365;SDS011;33105;47.964;7.982;2022-12-18T05:44:43;84.43;;;29.10;;
47365;SDS011;33105;47.964;7.982;2022-12-18T05:47:45;93.00;;;32.50;;
47365;SDS011;33105;47.964;7.982;2022-12-18T05:50:47;105.73;;;33.97;;
47365;SDS011;33105;47.964;7.982;2022-12-18T05:53:50;92.37;;;31.73;;
47365;SDS011;33105;47.964;7.982;2022-12-18T05:56:52;71.33;;;25.70;;
47365;SDS011;33105;47.964;7.982;2022-12-18T05:59:54;78.60;;;27.87;;
47365;SDS011;33105;47.964;7.982;2022-12-18T06:02:56;67.70;;;24.83;;
47365;SDS011;33105;47.964;7.982;2022-12-18T06:05:57;46.87;;;17.53;;
47365;SDS011;33105;47.964;7.982;2022-12-18T06:08:59;41.10;;;16.37;;
47365;SDS011;33105;47.964;7.982;2022-12-18T06:12:02;38.07;;;16.43;;
47365;SDS011;33105;47.964;7.982;2022-12-18T06:15:05;34.33;;;15.13;;
47365;SDS011;33105;47.964;7.982;2022-12-18T06:18:07;31.87;;;14.40;;
47365;SDS011;33105;47.964;7.982;2022-12-18T06:21:08;29.57;;;13.30;;
47365;SDS011;33105;47.964;7.982;2022-12-18T06:24:11;25.30;;;12.73;;
47365;SDS011;33105;47.964;7.982;2022-12-18T06:27:14;30.33;;;14.27;;
47365;SDS011;33105;47.964;7.982;2022-12-18T06:30:15;39.80;;;17.30;;
47365;SDS011;33105;47.964;7.982;2022-12-18T06:33:17;55.63;;;24.47;;
47365;SDS011;33105;47.964;7.982;2022-12-18T06:36:19;73.67;;;31.23;;
47365;SDS011;33105;47.964;7.982;2022-12-18T06:39:21;78.40;;;33.20;;
47365;SDS011;33105;47.964;7.982;2022-12-18T06:42:23;81.43;;;34.43;;
47365;SDS011;33105;47.964;7.982;2022-12-18T06:45:25;68.33;;;28.63;;
47365;SDS011;33105;47.964;7.982;2022-12-18T06:48:27;52.93;;;23.60;;
47365;SDS011;33105;47.964;7.982;2022-12-18T06:51:29;57.60;;;24.83;;
47365;SDS011;33105;47.964;7.982;2022-12-18T06:54:31;78.33;;;32.43;;
47365;SDS011;33105;47.964;7.982;2022-12-18T06:57:33;78.93;;;33.57;;
47365;SDS011;33105;47.964;7.982;2022-12-18T07:00:34;85.70;;;34.60;;
47365;SDS011;33105;47.964;7.982;2022-12-18T07:03:37;67.00;;;29.17;;
47365;SDS011;33105;47.964;7.982;2022-12-18T07:06:40;63.77;;;27.70;;
47365;SDS011;33105;47.964;7.982;2022-12-18T07:09:43;51.13;;;24.43;;
47365;SDS011;33105;47.964;7.982;2022-12-18T07:12:45;80.47;;;32.67;;
47365;SDS011;33105;47.964;7.982;2022-12-18T07:15:46;74.67;;;33.40;;
47365;SDS011;33105;47.964;7.982;2022-12-18T07:18:48;66.40;;;28.57;;
47365;SDS011;33105;47.964;7.982;2022-12-18T07:21:50;64.90;;;25.63;;
47365;SDS011;33105;47.964;7.982;2022-12-18T07:24:52;50.57;;;22.70;;
47365;SDS011;33105;47.964;7.982;2022-12-18T07:27:54;50.17;;;20.87;;
47365;SDS011;33105;47.964;7.982;2022-12-18T07:30:56;41.30;;;17.00;;
47365;SDS011;33105;47.964;7.982;2022-12-18T07:33:57;34.20;;;16.43;;
47365;SDS011;33105;47.964;7.982;2022-12-18T07:37:00;41.30;;;16.50;;
47365;SDS011;33105;47.964;7.982;2022-12-18T07:40:01;36.77;;;17.07;;
47365;SDS011;33105;47.964;7.982;2022-12-18T07:43:03;29.67;;;14.23;;
47365;SDS011;33105;47.964;7.982;2022-12-18T07:46:05;30.17;;;14.53;;
47365;SDS011;33105;47.964;7.982;2022-12-18T07:49:07;32.23;;;15.70;;
47365;SDS011;33105;47.964;7.982;2022-12-18T07:52:08;37.27;;;19.37;;
47365;SDS011;33105;47.964;7.982;2022-12-18T07:55:10;32.63;;;16.77;;
47365;SDS011;33105;47.964;7.982;2022-12-18T07:58:13;31.10;;;15.87;;
47365;SDS011;33105;47.964;7.982;2022-12-18T08:01:14;28.50;;;15.23;;
47365;SDS011;33105;47.964;7.982;2022-12-18T08:04:16;25.47;;;14.33;;
47365;SDS011;33105;47.964;7.982;2022-12-18T08:07:17;32.30;;;14.63;;
47365;SDS011;33105;47.964;7.982;2022-12-18T08:10:19;26.90;;;14.20;;
47365;SDS011;33105;47.964;7.982;2022-12-18T08:13:21;30.03;;;14.57;;
47365;SDS011;33105;47.964;7.982;2022-12-18T08:16:23;34.67;;;17.07;;
47365;SDS011;33105;47.964;7.982;2022-12-18T08:19:25;43.63;;;20.87;;
47365;SDS011;33105;47.964;7.982;2022-12-18T08:22:26;51.97;;;23.57;;
47365;SDS011;33105;47.964;7.982;2022-12-18T08:25:28;53.67;;;26.17;;
47365;SDS011;33105;47.964;7.982;2022-12-18T08:28:30;58.10;;;25.53;;
47365;SDS011;33105;47.964;7.982;2022-12-18T08:31:32;98.70;;;39.40;;
47365;SDS011;33105;47.964;7.982;2022-12-18T08:34:34;110.83;;;44.73;;
47365;SDS011;33105;47.964;7.982;2022-12-18T08:37:36;99.87;;;41.37;;
47365;SDS011;33105;47.964;7.982;2022-12-18T08:40:38;70.90;;;30.97;;
47365;SDS011;33105;47.964;7.982;2022-12-18T08:43:40;64.57;;;27.53;;
47365;SDS011;33105;47.964;7.982;2022-12-18T08:47:01;40.90;;;19.63;;
47365;SDS011;33105;47.964;7.982;2022-12-18T08:50:03;39.20;;;18.30;;
47365;SDS011;33105;47.964;7.982;2022-12-18T08:53:05;31.87;;;13.97;;
47365;SDS011;33105;47.964;7.982;2022-12-18T08:56:07;32.80;;;14.73;;
47365;SDS011;33105;47.964;7.982;2022-12-18T08:59:08;25.43;;;13.30;;
47365;SDS011;33105;47.964;7.982;2022-12-18T09:02:11;22.03;;;12.30;;
47365;SDS011;33105;47.964;7.982;2022-12-18T09:05:12;32.27;;;13.60;;
47365;SDS011;33105;47.964;7.982;2022-12-18T09:08:14;24.77;;;10.87;;
47365;SDS011;33105;47.964;7.982;2022-12-18T09:11:19;29.90;;;12.53;;
47365;SDS011;33105;47.964;7.982;2022-12-18T09:14:23;34.03;;;13.80;;
47365;SDS011;33105;47.964;7.982;2022-12-18T09:17:25;26.27;;;12.40;;
47365;SDS011;33105;47.964;7.982;2022-12-18T09:20:27;26.53;;;12.53;;
47365;SDS011;33105;47.964;7.982;2022-12-18T09:23:31;44.97;;;17.50;;
47365;SDS011;33105;47.964;7.982;2022-12-18T09:26:32;32.03;;;16.50;;
47365;SDS011;33105;47.964;7.982;2022-12-18T09:29:35;32.73;;;16.50;;
47365;SDS011;33105;47.964;7.982;2022-12-18T09:32:37;33.63;;;17.57;;
47365;SDS011;33105;47.964;7.982;2022-12-18T09:35:38;71.33;;;30.83;;
47365;SDS011;33105;47.964;7.982;2022-12-18T09:38:41;71.67;;;32.53;;
47365;SDS011;33105;47.964;7.982;2022-12-18T09:41:44;30.83;;;15.20;;
47365;SDS011;33105;47.964;7.982;2022-12-18T09:44:49;23.37;;;11.13;;
47365;SDS011;33105;47.964;7.982;2022-12-18T09:47:54;22.73;;;11.63;;
47365;SDS011;33105;47.964;7.982;2022-12-18T09:51:00;22.53;;;10.93;;
47365;SDS011;33105;47.964;7.982;2022-12-18T09:54:10;21.47;;;10.70;;
47365;SDS011;33105;47.964;7.982;2022-12-18T09:57:19;18.83;;;9.40;;
47365;SDS011;33105;47.964;7.982;2022-12-18T10:00:23;18.83;;;10.03;;
47365;SDS011;33105;47.964;7.982;2022-12-18T10:03:27;18.57;;;9.77;;
47365;SDS011;33105;47.964;7.982;2022-12-18T10:06:31;21.03;;;10.70;;
47365;SDS011;33105;47.964;7.982;2022-12-18T10:09:58;24.40;;;10.93;;
47365;SDS011;33105;47.964;7.982;2022-12-18T10:13:09;23.65;;;11.90;;
47365;SDS011;33105;47.964;7.982;2022-12-18T10:19:55;18.83;;;10.07;;
47365;SDS011;33105;47.964;7.982;2022-12-18T10:23:13;18.60;;;9.27;;
47365;SDS011;33105;47.964;7.982;2022-12-18T10:26:22;15.00;;;8.37;;
47365;SDS011;33105;47.964;7.982;2022-12-18T10:29:25;17.40;;;9.53;;
47365;SDS011;33105;47.964;7.982;2022-12-18T10:32:30;16.37;;;8.10;;
47365;SDS011;33105;47.964;7.982;2022-12-18T10:35:32;18.37;;;9.03;;
47365;SDS011;33105;47.964;7.982;2022-12-18T10:38:34;29.87;;;12.63;;
47365;SDS011;33105;47.964;7.982;2022-12-18T10:41:36;49.47;;;18.03;;
47365;SDS011;33105;47.964;7.982;2022-12-18T10:44:37;45.90;;;17.70;;
47365;SDS011;33105;47.964;7.982;2022-12-18T10:47:45;14.60;;;7.43;;
47365;SDS011;33105;47.964;7.982;2022-12-18T10:50:49;15.10;;;6.50;;
47365;SDS011;33105;47.964;7.982;2022-12-18T10:54:00;18.13;;;8.60;;
47365;SDS011;33105;47.964;7.982;2022-12-18T10:57:14;16.57;;;7.73;;
47365;SDS011;33105;47.964;7.982;2022-12-18T11:00:25;17.80;;;8.67;;
47365;SDS011;33105;47.964;7.982;2022-12-18T11:03:31;19.90;;;9.30;;
47365;SDS011;33105;47.964;7.982;2022-12-18T11:07:03;18.53;;;9.67;;
47365;SDS011;33105;47.964;7.982;2022-12-18T11:10:14;23.50;;;11.53;;
47365;SDS011;33105;47.964;7.982;2022-12-18T11:13:20;52.37;;;31.77;;
47365;SDS011;33105;47.964;7.982;2022-12-18T11:16:24;28.37;;;14.47;;
47365;SDS011;33105;47.964;7.982;2022-12-18T11:19:37;18.00;;;9.30;;
47365;SDS011;33105;47.964;7.982;2022-12-18T11:22:41;14.10;;;7.90;;
47365;SDS011;33105;47.964;7.982;2022-12-18T11:25:50;14.53;;;8.13;;
47365;SDS011;33105;47.964;7.982;2022-12-18T11:29:08;20.93;;;11.93;;
47365;SDS011;33105;47.964;7.982;2022-12-18T11:35:19;18.50;;;10.00;;
47365;SDS011;33105;47.964;7.982;2022-12-18T11:38:31;20.50;;;11.33;;
47365;SDS011;33105;47.964;7.982;2022-12-18T11:41:41;23.35;;;10.95;;
47365;SDS011;33105;47.964;7.982;2022-12-18T11:48:33;20.93;;;10.40;;
47365;SDS011;33105;47.964;7.982;2022-12-18T11:51:49;18.43;;;10.00;;
47365;SDS011;33105;47.964;7.982;2022-12-18T11:54:55;20.17;;;11.30;;
47365;SDS011;33105;47.964;7.982;2022-12-18T12:01:15;19.60;;;12.73;;
47365;SDS011;33105;47.964;7.982;2022-12-18T12:19:00;19.57;;;12.17;;
47365;SDS011;33105;47.964;7.982;2022-12-18T12:22:08;27.43;;;15.93;;
47365;SDS011;33105;47.964;7.982;2022-12-18T12:25:48;20.20;;;12.40;;
47365;SDS011;33105;47.964;7.982;2022-12-18T12:32:47;18.63;;;11.67;;
47365;SDS011;33105;47.964;7.982;2022-12-18T12:42:31;20.10;;;11.73;;
47365;SDS011;33105;47.964;7.982;2022-12-18T12:46:05;23.83;;;12.83;;
47365;SDS011;33105;47.964;7.982;2022-12-18T12:49:12;28.27;;;14.57;;
47365;SDS011;33105;47.964;7.982;2022-12-18T12:52:28;31.30;;;17.63;;
47365;SDS011;33105;47.964;7.982;2022-12-18T12:55:41;25.37;;;13.93;;
47365;SDS011;33105;47.964;7.982;2022-12-18T13:02:23;24.57;;;13.07;;
47365;SDS011;33105;47.964;7.982;2022-12-18T13:05:51;25.37;;;14.50;;
47365;SDS011;33105;47.964;7.982;2022-12-18T13:08:56;21.50;;;13.37;;
47365;SDS011;33105;47.964;7.982;2022-12-18T13:12:03;24.60;;;14.80;;
47365;SDS011;33105;47.964;7.982;2022-12-18T13:18:35;29.03;;;17.00;;
47365;SDS011;33105;47.964;7.982;2022-12-18T13:21:38;27.03;;;15.60;;
47365;SDS011;33105;47.964;7.982;2022-12-18T13:24:39;27.30;;;16.23;;
47365;SDS011;33105;47.964;7.982;2022-12-18T13:27:51;22.47;;;14.03;;
47365;SDS011;33105;47.964;7.982;2022-12-18T13:31:09;25.20;;;15.20;;
47365;SDS011;33105;47.964;7.982;2022-12-18T13:37:44;23.97;;;13.70;;
47365;SDS011;33105;47.964;7.982;2022-12-18T13:43:48;27.57;;;15.53;;
47365;SDS011;33105;47.964;7.982;2022-12-18T13:46:52;30.53;;;18.27;;
47365;SDS011;33105;47.964;7.982;2022-12-18T13:49:54;43.43;;;25.07;;
47365;SDS011;33105;47.964;7.982;2022-12-18T13:53:00;55.27;;;28.53;;
47365;SDS011;33105;47.964;7.982;2022-12-18T13:56:05;47.50;;;24.63;;
47365;SDS011;33105;47.964;7.982;2022-12-18T13:59:12;50.47;;;25.90;;
47365;SDS011;33105;47.964;7.982;2022-12-18T14:02:24;44.87;;;24.13;;
47365;SDS011;33105;47.964;7.982;2022-12-18T14:05:36;41.93;;;23.07;;
47365;SDS011;33105;47.964;7.982;2022-12-18T14:08:39;40.63;;;23.10;;
47365;SDS011;33105;47.964;7.982;2022-12-18T14:11:46;38.47;;;22.07;;
47365;SDS011;33105;47.964;7.982;2022-12-18T14:14:51;38.13;;;22.95;;
47365;SDS011;33105;47.964;7.982;2022-12-18T14:17:55;37.20;;;23.20;;
47365;SDS011;33105;47.964;7.982;2022-12-18T14:21:00;40.00;;;23.47;;
47365;SDS011;33105;47.964;7.982;2022-12-18T14:24:20;39.13;;;24.43;;
47365;SDS011;33105;47.964;7.982;2022-12-18T14:27:24;36.67;;;21.50;;
47365;SDS011;33105;47.964;7.982;2022-12-18T14:30:30;37.77;;;20.57;;
47365;SDS011;33105;47.964;7.982;2022-12-18T14:33:33;40.07;;;23.13;;
47365;SDS011;33105;47.964;7.982;2022-12-18T14:36:36;47.43;;;26.40;;
47365;SDS011;33105;47.964;7.982;2022-12-18T14:39:37;67.90;;;34.77;;
47365;SDS011;33105;47.964;7.982;2022-12-18T14:42:39;58.53;;;30.93;;
47365;SDS011;33105;47.964;7.982;2022-12-18T14:45:43;70.63;;;34.10;;
47365;SDS011;33105;47.964;7.982;2022-12-18T14:48:47;94.60;;;51.80;;
47365;SDS011;33105;47.964;7.982;2022-12-18T14:51:50;63.67;;;34.27;;
47365;SDS011;33105;47.964;7.982;2022-12-18T14:54:56;56.13;;;33.43;;
47365;SDS011;33105;47.964;7.982;2022-12-18T14:57:58;55.53;;;31.80;;
47365;SDS011;33105;47.964;7.982;2022-12-18T15:01:00;54.77;;;30.87;;
47365;SDS011;33105;47.964;7.982;2022-12-18T15:04:01;60.70;;;32.40;;
47365;SDS011;33105;47.964;7.982;2022-12-18T15:10:12;62.23;;;32.93;;
47365;SDS011;33105;47.964;7.982;2022-12-18T15:13:22;61.07;;;31.47;;
47365;SDS011;33105;47.964;7.982;2022-12-18T15:16:26;65.80;;;38.70;;
47365;SDS011;33105;47.964;7.982;2022-12-18T15:22:38;61.43;;;32.73;;
47365;SDS011;33105;47.964;7.982;2022-12-18T15:25:40;65.77;;;36.40;;
47365;SDS011;33105;47.964;7.982;2022-12-18T15:28:48;57.83;;;30.40;;
47365;SDS011;33105;47.964;7.982;2022-12-18T15:31:58;57.87;;;29.17;;
47365;SDS011;33105;47.964;7.982;2022-12-18T15:38:12;60.70;;;30.23;;
47365;SDS011;33105;47.964;7.982;2022-12-18T15:41:15;60.77;;;32.53;;
47365;SDS011;33105;47.964;7.982;2022-12-18T15:44:22;56.73;;;28.37;;
47365;SDS011;33105;47.964;7.982;2022-12-18T15:47:27;60.97;;;32.93;;
47365;SDS011;33105;47.964;7.982;2022-12-18T15:50:29;62.73;;;31.17;;
47365;SDS011;33105;47.964;7.982;2022-12-18T15:53:31;59.17;;;28.30;;
47365;SDS011;33105;47.964;7.982;2022-12-18T15:56:35;51.40;;;27.17;;
47365;SDS011;33105;47.964;7.982;2022-12-18T15:59:57;49.80;;;24.30;;
47365;SDS011;33105;47.964;7.982;2022-12-18T16:02:59;46.67;;;24.33;;
47365;SDS011;33105;47.964;7.982;2022-12-18T16:06:01;52.37;;;27.80;;
47365;SDS011;33105;47.964;7.982;2022-12-18T16:09:04;48.30;;;24.60;;
47365;SDS011;33105;47.964;7.982;2022-12-18T16:12:15;55.27;;;27.03;;
47365;SDS011;33105;47.964;7.982;2022-12-18T16:15:19;49.43;;;25.60;;
47365;SDS011;33105;47.964;7.982;2022-12-18T16:18:21;50.23;;;25.30;;
47365;SDS011;33105;47.964;7.982;2022-12-18T16:21:23;51.40;;;26.00;;
47365;SDS011;33105;47.964;7.982;2022-12-18T16:24:29;58.13;;;28.70;;
47365;SDS011;33105;47.964;7.982;2022-12-18T16:27:33;52.93;;;26.77;;
47365;SDS011;33105;47.964;7.982;2022-12-18T16:30:34;52.57;;;25.53;;
47365;SDS011;33105;47.964;7.982;2022-12-18T16:33:35;57.63;;;28.90;;
47365;SDS011;33105;47.964;7.982;2022-12-18T16:36:37;55.93;;;28.00;;
47365;SDS011;33105;47.964;7.982;2022-12-18T16:39:39;57.43;;;29.40;;
47365;SDS011;33105;47.964;7.982;2022-12-18T16:42:42;63.63;;;32.33;;
47365;SDS011;33105;47.964;7.982;2022-12-18T16:45:46;67.03;;;33.50;;
47365;SDS011;33105;47.964;7.982;2022-12-18T16:48:48;73.77;;;36.17;;
47365;SDS011;33105;47.964;7.982;2022-12-18T16:51:50;68.67;;;35.47;;
47365;SDS011;33105;47.964;7.982;2022-12-18T16:54:52;68.83;;;34.83;;
47365;SDS011;33105;47.964;7.982;2022-12-18T16:57:54;73.70;;;35.30;;
47365;SDS011;33105;47.964;7.982;2022-12-18T17:00:55;78.97;;;36.60;;
47365;SDS011;33105;47.964;7.982;2022-12-18T17:03:58;80.87;;;39.03;;
47365;SDS011;33105;47.964;7.982;2022-12-18T17:07:02;95.83;;;46.57;;
47365;SDS011;33105;47.964;7.982;2022-12-18T17:10:04;90.90;;;44.10;;
47365;SDS011;33105;47.964;7.982;2022-12-18T17:13:06;85.17;;;41.57;;
47365;SDS011;33105;47.964;7.982;2022-12-18T17:16:07;73.63;;;37.83;;
47365;SDS011;33105;47.964;7.982;2022-12-18T17:19:10;76.97;;;36.73;;
47365;SDS011;33105;47.964;7.982;2022-12-18T17:22:11;73.43;;;36.33;;
47365;SDS011;33105;47.964;7.982;2022-12-18T17:25:13;67.63;;;36.23;;
47365;SDS011;33105;47.964;7.982;2022-12-18T17:28:15;70.40;;;36.03;;
47365;SDS011;33105;47.964;7.982;2022-12-18T17:31:18;63.77;;;31.20;;
47365;SDS011;33105;47.964;7.982;2022-12-18T17:34:21;65.33;;;32.57;;
47365;SDS011;33105;47.964;7.982;2022-12-18T17:37:23;65.67;;;32.27;;
47365;SDS011;33105;47.964;7.982;2022-12-18T17:40:25;62.53;;;31.80;;
47365;SDS011;33105;47.964;7.982;2022-12-18T17:43:27;62.40;;;32.50;;
47365;SDS011;33105;47.964;7.982;2022-12-18T17:46:29;63.50;;;32.20;;
47365;SDS011;33105;47.964;7.982;2022-12-18T17:49:32;63.20;;;34.07;;
47365;SDS011;33105;47.964;7.982;2022-12-18T17:52:35;67.77;;;37.03;;
47365;SDS011;33105;47.964;7.982;2022-12-18T17:55:37;61.77;;;33.27;;
47365;SDS011;33105;47.964;7.982;2022-12-18T17:58:39;70.60;;;37.07;;
47365;SDS011;33105;47.964;7.982;2022-12-18T18:01:42;62.53;;;31.60;;
47365;SDS011;33105;47.964;7.982;2022-12-18T18:04:45;47.87;;;28.33;;
47365;SDS011;33105;47.964;7.982;2022-12-18T18:07:46;43.20;;;22.53;;
47365;SDS011;33105;47.964;7.982;2022-12-18T18:10:49;37.03;;;19.13;;
47365;SDS011;33105;47.964;7.982;2022-12-18T18:13:52;35.67;;;17.57;;
47365;SDS011;33105;47.964;7.982;2022-12-18T18:17:03;30.17;;;17.30;;
47365;SDS011;33105;47.964;7.982;2022-12-18T18:20:05;38.43;;;19.60;;
47365;SDS011;33105;47.964;7.982;2022-12-18T18:23:07;45.40;;;25.70;;
47365;SDS011;33105;47.964;7.982;2022-12-18T18:26:08;51.43;;;28.17;;
47365;SDS011;33105;47.964;7.982;2022-12-18T18:29:12;62.30;;;35.90;;
47365;SDS011;33105;47.964;7.982;2022-12-18T18:32:16;66.77;;;39.40;;
47365;SDS011;33105;47.964;7.982;2022-12-18T18:35:18;65.03;;;35.43;;
47365;SDS011;33105;47.964;7.982;2022-12-18T18:38:20;63.17;;;33.80;;
47365;SDS011;33105;47.964;7.982;2022-12-18T18:41:21;63.97;;;31.80;;
47365;SDS011;33105;47.964;7.982;2022-12-18T18:44:24;63.07;;;34.50;;
47365;SDS011;33105;47.964;7.982;2022-12-18T18:47:27;60.07;;;32.63;;
47365;SDS011;33105;47.964;7.982;2022-12-18T18:50:29;58.93;;;33.13;;
47365;SDS011;33105;47.964;7.982;2022-12-18T18:53:34;58.07;;;30.53;;
47365;SDS011;33105;47.964;7.982;2022-12-18T18:56:40;60.00;;;33.20;;
47365;SDS011;33105;47.964;7.982;2022-12-18T18:59:42;66.47;;;34.60;;
47365;SDS011;33105;47.964;7.982;2022-12-18T19:02:43;71.03;;;36.97;;
47365;SDS011;33105;47.964;7.982;2022-12-18T19:05:49;70.93;;;35.93;;
47365;SDS011;33105;47.964;7.982;2022-12-18T19:08:56;66.03;;;35.60;;
47365;SDS011;33105;47.964;7.982;2022-12-18T19:11:57;67.70;;;35.13;;
47365;SDS011;33105;47.964;7.982;2022-12-18T19:15:18;63.37;;;33.57;;
47365;SDS011;33105;47.964;7.982;2022-12-18T19:18:20;63.80;;;32.67;;
47365;SDS011;33105;47.964;7.982;2022-12-18T19:21:23;65.13;;;32.20;;
47365;SDS011;33105;47.964;7.982;2022-12-18T19:24:26;54.53;;;30.93;;
47365;SDS011;33105;47.964;7.982;2022-12-18T19:27:28;59.60;;;31.97;;
47365;SDS011;33105;47.964;7.982;2022-12-18T19:30:30;56.23;;;30.13;;
47365;SDS011;33105;47.964;7.982;2022-12-18T19:33:34;53.80;;;30.07;;
47365;SDS011;33105;47.964;7.982;2022-12-18T19:36:38;57.57;;;30.13;;